createdAt,value
2019-01-13T00:00:42.153Z,97.30
2019-01-13T00:03:10.287Z,97.60
2019-01-13T00:05:37.205Z,97.50
2019-01-13T00:08:04.148Z,97.50
2019-01-13T00:10:31.091Z,97.50
2019-01-13T00:12:58.021Z,97.40
2019-01-13T00:15:24.952Z,97.20
2019-01-13T00:17:51.896Z,97.20
2019-01-13T00:20:18.821Z,97.10
2019-01-13T00:22:45.750Z,97.10
2019-01-13T00:25:12.707Z,97.10
2019-01-13T00:27:39.648Z,97.30
2019-01-13T00:30:10.440Z,97.70
2019-01-13T00:32:37.385Z,97.20
2019-01-13T00:35:04.336Z,97.20
2019-01-13T00:37:31.278Z,97.40
2019-01-13T00:39:58.216Z,97.30
2019-01-13T00:42:25.155Z,97.30
2019-01-13T00:44:52.084Z,97.30
2019-01-13T00:47:19.035Z,97.40
2019-01-13T00:49:45.960Z,97.30
2019-01-13T00:52:12.899Z,97.10
2019-01-13T00:54:39.859Z,97.10
2019-01-13T00:57:06.768Z,97.10
2019-01-13T00:59:33.709Z,97.10
2019-01-13T01:02:00.676Z,97.10
2019-01-13T01:04:28.379Z,97.10
2019-01-13T01:06:55.300Z,97.20
2019-01-13T01:09:22.249Z,97.10
2019-01-13T01:11:49.203Z,97.00
2019-01-13T01:14:16.132Z,97.00
2019-01-13T01:16:43.097Z,97.00
2019-01-13T01:19:10.032Z,97.10
2019-01-13T01:21:36.971Z,96.90
2019-01-13T01:24:03.951Z,97.30
2019-01-13T01:26:30.892Z,97.00
2019-01-13T01:28:57.823Z,96.90
2019-01-13T01:31:24.762Z,96.90
2019-01-13T01:33:51.687Z,97.20
2019-01-13T01:36:18.633Z,97.20
2019-01-13T01:38:45.589Z,97.10
2019-01-13T01:41:12.515Z,97.00
2019-01-13T01:43:39.455Z,97.10
2019-01-13T01:46:06.427Z,97.20
2019-01-13T01:48:33.415Z,97.20
2019-01-13T01:51:00.331Z,97.20
2019-01-13T01:53:27.291Z,97.10
2019-01-13T01:55:54.226Z,97.00
2019-01-13T01:58:21.159Z,97.10
2019-01-13T02:00:48.099Z,97.00
2019-01-13T02:03:15.024Z,97.20
2019-01-13T02:05:42.591Z,97.10
2019-01-13T02:08:09.512Z,96.90
2019-01-13T02:10:36.448Z,97.10
2019-01-13T02:13:03.394Z,97.10
2019-01-13T02:15:30.342Z,97.10
2019-01-13T02:17:57.288Z,97.20
2019-01-13T02:20:24.210Z,97.20
2019-01-13T02:22:51.176Z,97.10
2019-01-13T02:25:20.621Z,97.00
2019-01-13T02:27:47.536Z,96.90
2019-01-13T02:30:16.693Z,96.90
2019-01-13T02:32:43.628Z,97.00
2019-01-13T02:35:10.545Z,96.90
2019-01-13T02:37:37.488Z,96.90
2019-01-13T02:40:05.010Z,96.90
2019-01-13T02:42:31.952Z,96.90
2019-01-13T02:44:58.888Z,96.70
2019-01-13T02:47:25.820Z,96.60
2019-01-13T02:49:52.756Z,96.50
2019-01-13T02:52:19.689Z,96.60
2019-01-13T02:54:46.617Z,96.60
2019-01-13T02:57:13.553Z,96.80
2019-01-13T02:59:40.508Z,97.00
2019-01-13T03:02:07.437Z,96.90
2019-01-13T03:04:34.376Z,96.90
2019-01-13T03:07:01.676Z,96.70
2019-01-13T03:09:28.610Z,96.70
2019-01-13T03:11:55.607Z,96.70
2019-01-13T03:14:22.913Z,96.80
2019-01-13T03:16:49.832Z,96.80
2019-01-13T03:19:16.765Z,96.80
2019-01-13T03:21:43.737Z,96.80
2019-01-13T03:24:10.661Z,97.00
2019-01-13T03:26:37.583Z,97.10
2019-01-13T03:29:04.523Z,97.10
2019-01-13T03:31:31.444Z,97.20
2019-01-13T03:33:58.380Z,97.10
2019-01-13T03:36:25.329Z,97.00
2019-01-13T03:38:52.257Z,97.00
2019-01-13T03:41:19.203Z,97.00
2019-01-13T03:43:46.161Z,96.90
2019-01-13T03:46:13.087Z,97.00
2019-01-13T03:48:40.047Z,97.10
2019-01-13T03:51:07.015Z,97.00
2019-01-13T03:53:33.990Z,97.10
2019-01-13T03:56:00.927Z,97.10
2019-01-13T03:58:27.875Z,96.90
2019-01-13T04:00:54.808Z,96.70
2019-01-13T04:03:21.768Z,96.80
2019-01-13T04:05:48.708Z,96.70
2019-01-13T04:08:17.104Z,96.70
2019-01-13T04:10:44.035Z,96.60
2019-01-13T04:13:10.972Z,96.60
2019-01-13T04:15:41.130Z,96.70
2019-01-13T04:18:08.058Z,96.70
2019-01-13T04:20:34.996Z,96.50
2019-01-13T04:23:01.924Z,96.50
2019-01-13T04:25:28.856Z,96.40
2019-01-13T04:27:55.801Z,96.40
2019-01-13T04:30:23.092Z,96.50
2019-01-13T04:32:50.040Z,96.40
2019-01-13T04:35:16.992Z,96.50
2019-01-13T04:37:43.928Z,96.50
2019-01-13T04:40:10.852Z,96.40
2019-01-13T04:42:37.809Z,96.40
2019-01-13T04:45:04.777Z,96.30
2019-01-13T04:47:31.736Z,96.50
2019-01-13T04:49:58.688Z,96.60
2019-01-13T04:52:25.625Z,96.60
2019-01-13T04:54:52.568Z,96.50
2019-01-13T04:57:19.517Z,96.50
2019-01-13T04:59:46.466Z,96.50
2019-01-13T05:02:13.407Z,96.60
2019-01-13T05:04:40.367Z,96.60
2019-01-13T05:07:07.297Z,96.60
2019-01-13T05:09:35.693Z,96.80
2019-01-13T05:12:02.661Z,96.80
2019-01-13T05:14:29.601Z,96.80
2019-01-13T05:16:56.544Z,97.00
2019-01-13T05:19:23.504Z,96.90
2019-01-13T05:21:50.445Z,96.80
2019-01-13T05:24:17.371Z,96.80
2019-01-13T05:26:44.316Z,96.80
2019-01-13T05:29:11.248Z,96.60
2019-01-13T05:31:42.117Z,96.70
2019-01-13T05:34:05.143Z,96.70
2019-01-13T05:36:32.087Z,96.80
2019-01-13T05:38:59.024Z,96.70
2019-01-13T05:41:25.973Z,96.70
2019-01-13T05:43:52.909Z,96.80
2019-01-13T05:46:19.832Z,96.60
2019-01-13T05:48:46.771Z,96.50
2019-01-13T05:51:13.700Z,96.40
2019-01-13T05:53:40.623Z,96.40
2019-01-13T05:56:07.567Z,96.40
2019-01-13T05:58:34.497Z,96.40
2019-01-13T06:01:01.425Z,96.40
2019-01-13T06:03:28.369Z,96.20
2019-01-13T06:05:55.297Z,96.20
2019-01-13T06:08:22.227Z,96.50
2019-01-13T06:10:49.594Z,96.00
2019-01-13T06:13:16.522Z,96.20
2019-01-13T06:15:43.456Z,96.20
2019-01-13T06:18:10.408Z,96.50
2019-01-13T06:20:37.353Z,96.20
2019-01-13T06:23:04.301Z,96.10
2019-01-13T06:25:31.249Z,96.30
2019-01-13T06:27:58.172Z,96.40
2019-01-13T06:30:25.104Z,96.10
2019-01-13T06:32:52.103Z,96.10
2019-01-13T06:35:19.500Z,96.10
2019-01-13T06:37:46.464Z,96.20
2019-01-13T06:40:15.569Z,96.10
2019-01-13T06:42:42.483Z,96.30
2019-01-13T06:45:11.993Z,96.20
2019-01-13T06:47:38.953Z,96.10
2019-01-13T06:50:07.010Z,96.20
2019-01-13T06:52:33.939Z,96.30
2019-01-13T06:55:00.888Z,96.00
2019-01-13T06:57:27.851Z,95.90
2019-01-13T06:59:54.783Z,95.70
2019-01-13T07:02:21.743Z,95.80
2019-01-13T07:04:48.672Z,96.10
2019-01-13T07:07:15.594Z,96.20
2019-01-13T07:09:42.556Z,96.10
2019-01-13T07:12:09.756Z,96.10
2019-01-13T07:14:36.676Z,95.90
2019-01-13T07:17:03.628Z,96.00
2019-01-13T07:19:30.548Z,96.00
2019-01-13T07:21:57.488Z,95.80
2019-01-13T07:24:24.445Z,95.50
2019-01-13T07:26:51.382Z,95.30
2019-01-13T07:29:18.309Z,95.50
2019-01-13T07:31:45.263Z,95.40
2019-01-13T07:34:12.196Z,95.80
2019-01-13T07:36:39.124Z,96.00
2019-01-13T07:39:06.945Z,96.30
2019-01-13T07:41:33.871Z,96.80
2019-01-13T07:44:00.802Z,97.20
2019-01-13T07:46:27.743Z,97.30
2019-01-13T07:48:54.681Z,97.60
2019-01-13T07:51:21.604Z,97.60
2019-01-13T07:53:48.560Z,97.40
2019-01-13T07:56:15.547Z,97.50
2019-01-13T07:58:42.476Z,97.50
2019-01-13T08:01:09.456Z,97.50
2019-01-13T08:03:36.388Z,97.50
2019-01-13T08:06:03.319Z,97.50
2019-01-13T08:08:30.309Z,97.60
2019-01-13T08:10:57.288Z,97.50
2019-01-13T08:13:25.479Z,97.40
2019-01-13T08:15:52.438Z,97.40
2019-01-13T08:18:19.373Z,97.20
2019-01-13T08:20:46.302Z,96.90
2019-01-13T08:23:13.269Z,96.90
2019-01-13T08:25:40.233Z,96.90
2019-01-13T08:28:07.177Z,96.90
2019-01-13T08:30:34.162Z,97.00
2019-01-13T08:33:01.082Z,96.90
2019-01-13T08:35:28.028Z,97.00
2019-01-13T08:37:54.980Z,97.00
2019-01-13T08:40:21.985Z,96.70
2019-01-13T08:42:48.934Z,97.10
2019-01-13T08:45:16.152Z,97.00
2019-01-13T08:47:43.089Z,97.00
2019-01-13T08:50:13.696Z,96.60
2019-01-13T08:52:40.643Z,96.80
2019-01-13T08:55:07.599Z,97.00
2019-01-13T08:57:34.549Z,96.70
2019-01-13T09:00:01.486Z,97.00
2019-01-13T09:02:32.160Z,97.10
2019-01-13T09:04:55.355Z,97.10
2019-01-13T09:07:22.320Z,97.10
2019-01-13T09:09:49.311Z,96.80
2019-01-13T09:12:16.289Z,96.60
2019-01-13T09:14:44.637Z,97.20
2019-01-13T09:17:11.589Z,97.20
2019-01-13T09:19:38.528Z,97.30
2019-01-13T09:22:05.485Z,96.80
2019-01-13T09:24:32.441Z,97.20
2019-01-13T09:26:59.444Z,97.20
2019-01-13T09:29:26.385Z,97.40
2019-01-13T09:31:53.329Z,97.30
2019-01-13T09:34:20.287Z,97.30
2019-01-13T09:36:47.249Z,97.20
2019-01-13T09:39:14.189Z,97.20
2019-01-13T09:41:41.128Z,97.30
2019-01-13T09:44:08.123Z,97.50
2019-01-13T09:46:35.071Z,97.30
2019-01-13T09:49:02.020Z,97.30
2019-01-13T09:51:28.972Z,97.60
2019-01-13T09:53:55.912Z,97.30
2019-01-13T09:56:22.861Z,97.40
2019-01-13T09:58:49.807Z,97.60
2019-01-13T10:01:16.742Z,97.60
2019-01-13T10:03:43.685Z,97.20
2019-01-13T10:06:10.642Z,97.60
2019-01-13T10:08:37.581Z,97.30
2019-01-13T10:11:04.524Z,97.30
2019-01-13T10:13:31.529Z,97.20
2019-01-13T10:15:59.807Z,97.80
2019-01-13T10:18:26.744Z,97.70
2019-01-13T10:20:53.695Z,97.40
2019-01-13T10:23:20.664Z,97.30
2019-01-13T10:25:47.590Z,97.40
2019-01-13T10:28:14.611Z,97.40
2019-01-13T10:30:41.560Z,97.50
2019-01-13T10:33:08.503Z,97.50
2019-01-13T10:35:35.457Z,97.40
2019-01-13T10:38:02.404Z,97.30
2019-01-13T10:40:30.056Z,97.30
2019-01-13T10:42:57.032Z,97.30
2019-01-13T10:45:24.025Z,97.50
2019-01-13T10:47:50.943Z,97.30
2019-01-13T10:50:21.816Z,97.60
2019-01-13T10:52:48.772Z,97.40
2019-01-13T10:55:15.848Z,98.00
2019-01-13T10:57:42.803Z,97.60
2019-01-13T11:00:14.809Z,97.60
2019-01-13T11:02:41.765Z,97.40
2019-01-13T11:05:08.776Z,97.30
2019-01-13T11:07:35.711Z,97.40
2019-01-13T11:10:02.817Z,97.20
2019-01-13T11:12:29.771Z,97.00
2019-01-13T11:14:56.689Z,96.60
2019-01-13T11:17:23.931Z,97.20
2019-01-13T11:19:50.880Z,97.10
2019-01-13T11:22:17.804Z,97.00
2019-01-13T11:24:44.747Z,97.30
2019-01-13T11:27:11.764Z,96.80
2019-01-13T11:29:38.688Z,96.90
2019-01-13T11:32:05.632Z,97.20
2019-01-13T11:34:32.576Z,97.20
2019-01-13T11:36:59.507Z,97.40
2019-01-13T11:39:26.435Z,97.60
2019-01-13T11:41:53.401Z,97.60
2019-01-13T11:44:20.337Z,97.20
2019-01-13T11:46:47.279Z,97.80
2019-01-13T11:49:14.232Z,97.40
2019-01-13T11:51:41.210Z,96.80
2019-01-13T11:54:08.143Z,97.10
2019-01-13T11:56:35.091Z,97.20
2019-01-13T11:59:02.023Z,97.30
2019-01-13T12:01:28.994Z,97.50
2019-01-13T12:03:55.991Z,97.00
2019-01-13T12:06:22.931Z,97.10
2019-01-13T12:08:49.865Z,97.40
2019-01-13T12:11:16.826Z,97.20
2019-01-13T12:13:43.743Z,97.20
2019-01-13T12:16:10.679Z,97.70
2019-01-13T12:18:40.653Z,97.30
2019-01-13T12:21:05.094Z,97.60
2019-01-13T12:23:32.023Z,97.50
2019-01-13T12:25:58.973Z,97.90
2019-01-13T12:28:25.900Z,97.90
2019-01-13T12:30:52.836Z,97.70
2019-01-13T12:33:24.543Z,97.80
2019-01-13T12:35:46.736Z,97.60
2019-01-13T12:38:13.687Z,97.40
2019-01-13T12:40:40.640Z,97.50
2019-01-13T12:43:07.566Z,97.70
2019-01-13T12:45:34.519Z,97.70
2019-01-13T12:48:01.473Z,97.30
2019-01-13T12:50:29.599Z,97.40
2019-01-13T12:52:56.565Z,97.30
2019-01-13T12:55:23.493Z,97.40
2019-01-13T12:57:50.424Z,97.60
2019-01-13T13:00:17.478Z,97.80
2019-01-13T13:02:44.527Z,97.70
2019-01-13T13:05:11.471Z,98.10
2019-01-13T13:07:38.453Z,97.90
2019-01-13T13:10:10.904Z,98.10
2019-01-13T13:12:37.839Z,98.10
2019-01-13T13:15:06.053Z,97.90
2019-01-13T13:17:33.100Z,97.90
2019-01-13T13:20:00.644Z,97.90
2019-01-13T13:22:27.753Z,98.00
2019-01-13T13:24:54.761Z,97.70
2019-01-13T13:27:21.703Z,97.70
2019-01-13T13:29:48.768Z,98.00
2019-01-13T13:32:15.883Z,97.70
2019-01-13T13:34:42.899Z,97.60
2019-01-13T13:37:09.853Z,97.80
2019-01-13T13:39:36.841Z,97.80
2019-01-13T13:42:03.902Z,97.40
2019-01-13T13:44:30.856Z,97.40
2019-01-13T13:46:57.791Z,97.70
2019-01-13T13:49:24.720Z,97.70
2019-01-13T13:51:51.740Z,97.90
2019-01-13T13:54:18.691Z,97.70
2019-01-13T13:56:45.619Z,97.50
2019-01-13T13:59:12.587Z,97.60
2019-01-13T14:01:39.554Z,98.00
2019-01-13T14:04:06.497Z,97.70
2019-01-13T14:06:33.423Z,97.50
2019-01-13T14:09:00.371Z,97.70
2019-01-13T14:11:27.320Z,97.60
2019-01-13T14:13:54.261Z,97.50
2019-01-13T14:16:21.251Z,97.60
2019-01-13T14:18:48.194Z,97.60
2019-01-13T14:21:15.750Z,97.80
2019-01-13T14:23:42.702Z,97.80
2019-01-13T14:26:09.641Z,97.80
2019-01-13T14:28:36.571Z,97.80
2019-01-13T14:31:03.647Z,97.70
2019-01-13T14:33:30.586Z,97.80
2019-01-13T14:35:57.527Z,97.80
2019-01-13T14:38:24.480Z,97.70
2019-01-13T14:40:51.402Z,97.90
2019-01-13T14:43:18.349Z,97.90
2019-01-13T14:45:45.295Z,97.90
2019-01-13T14:48:12.246Z,97.50
2019-01-13T14:50:39.804Z,98.00
2019-01-13T14:53:06.715Z,98.10
2019-01-13T14:55:33.730Z,98.20
2019-01-13T14:58:00.654Z,98.20
2019-01-13T15:00:29.700Z,98.30
2019-01-13T15:02:56.447Z,98.50
2019-01-13T15:05:23.391Z,98.60
2019-01-13T15:07:50.374Z,98.80
2019-01-13T15:10:17.730Z,99.10
2019-01-13T15:12:44.699Z,98.60
2019-01-13T15:15:11.980Z,98.80
2019-01-13T15:17:38.920Z,98.60
2019-01-13T15:20:08.809Z,98.70
2019-01-13T15:22:37.426Z,98.70
2019-01-13T15:25:05.839Z,98.70
2019-01-13T15:27:32.782Z,98.70
2019-01-13T15:29:59.732Z,98.80
2019-01-13T15:32:26.665Z,98.80
2019-01-13T15:34:53.608Z,98.30
2019-01-13T15:37:20.588Z,98.70
2019-01-13T15:39:47.515Z,98.80
2019-01-13T15:42:14.460Z,98.80
2019-01-13T15:44:41.408Z,98.50
2019-01-13T15:47:08.362Z,98.70
2019-01-13T15:49:35.315Z,98.60
2019-01-13T15:52:02.282Z,98.80
2019-01-13T15:54:29.211Z,98.80
2019-01-13T15:56:56.172Z,98.80
2019-01-13T15:59:23.114Z,98.80
2019-01-13T16:01:50.048Z,98.70
2019-01-13T16:04:17.061Z,98.60
2019-01-13T16:06:44.053Z,98.60
2019-01-13T16:09:10.989Z,98.70
2019-01-13T16:11:37.921Z,98.50
2019-01-13T16:14:04.878Z,98.60
2019-01-13T16:16:31.868Z,98.70
2019-01-13T16:18:58.857Z,98.50
2019-01-13T16:21:25.815Z,98.50
2019-01-13T16:23:53.276Z,98.70
2019-01-13T16:26:20.243Z,98.70
2019-01-13T16:28:47.190Z,98.60
2019-01-13T16:31:14.149Z,98.50
2019-01-13T16:33:41.086Z,98.90
2019-01-13T16:36:08.048Z,99.10
2019-01-13T16:38:34.985Z,98.80
2019-01-13T16:41:01.905Z,98.70
2019-01-13T16:43:28.905Z,98.80
2019-01-13T16:45:55.852Z,98.70
2019-01-13T16:48:22.801Z,99.00
2019-01-13T16:50:49.819Z,99.10
2019-01-13T16:53:16.748Z,99.10
2019-01-13T16:55:43.679Z,99.20
2019-01-13T16:58:10.636Z,99.40
2019-01-13T17:00:37.573Z,99.20
2019-01-13T17:03:04.503Z,99.40
2019-01-13T17:05:31.463Z,99.70
2019-01-13T17:07:58.438Z,99.30
2019-01-13T17:10:25.469Z,99.20
2019-01-13T17:12:52.486Z,99.30
2019-01-13T17:15:22.436Z,99.20
2019-01-13T17:17:49.363Z,99.30
2019-01-13T17:20:18.413Z,99.20
2019-01-13T17:22:45.350Z,99.00
2019-01-13T17:25:15.180Z,98.80
2019-01-13T17:27:42.144Z,98.90
2019-01-13T17:30:12.962Z,98.60
2019-01-13T17:32:39.882Z,98.50
2019-01-13T17:35:06.897Z,98.50
2019-01-13T17:37:33.832Z,98.20
2019-01-13T17:40:00.802Z,98.30
2019-01-13T17:42:27.816Z,98.30
2019-01-13T17:44:54.745Z,98.30
2019-01-13T17:47:21.659Z,98.20
2019-01-13T17:49:48.604Z,98.20
2019-01-13T17:52:15.548Z,98.20
2019-01-13T17:54:42.481Z,98.30
2019-01-13T17:57:09.438Z,98.50
2019-01-13T17:59:36.393Z,98.40
2019-01-13T18:02:03.341Z,98.30
2019-01-13T18:04:30.288Z,98.50
2019-01-13T18:06:57.221Z,98.40
2019-01-13T18:09:24.153Z,98.30
2019-01-13T18:11:51.116Z,98.50
2019-01-13T18:14:19.242Z,98.70
2019-01-13T18:16:45.025Z,98.80
2019-01-13T18:19:11.998Z,98.60
2019-01-13T18:21:38.933Z,98.80
2019-01-13T18:24:05.856Z,99.00
2019-01-13T18:26:34.156Z,98.90
2019-01-13T18:29:01.091Z,98.80
2019-01-13T18:31:28.046Z,99.00
2019-01-13T18:33:55.002Z,99.00
2019-01-13T18:36:21.964Z,99.00
2019-01-13T18:38:48.906Z,99.10
2019-01-13T18:41:15.853Z,99.20
2019-01-13T18:43:42.784Z,99.30
2019-01-13T18:46:09.719Z,99.40
2019-01-13T18:48:36.712Z,99.20
2019-01-13T18:51:03.717Z,99.30
2019-01-13T18:53:30.688Z,99.20
2019-01-13T18:55:57.777Z,99.10
2019-01-13T18:58:24.765Z,98.90
2019-01-13T19:00:51.732Z,99.00
2019-01-13T19:03:18.736Z,98.20
2019-01-13T19:05:45.747Z,98.30
2019-01-13T19:08:12.758Z,98.70
2019-01-13T19:10:45.477Z,98.20
2019-01-13T19:13:19.451Z,97.80
2019-01-13T19:15:47.939Z,98.60
2019-01-13T19:18:15.013Z,98.10
2019-01-13T19:20:41.957Z,98.10
2019-01-13T19:23:13.038Z,98.00
2019-01-13T19:25:39.987Z,97.80
2019-01-13T19:28:08.569Z,97.60
2019-01-13T19:30:35.525Z,97.80
2019-01-13T19:33:02.451Z,97.40
2019-01-13T19:35:29.431Z,97.50
2019-01-13T19:37:56.427Z,97.60
2019-01-13T19:40:23.371Z,97.30
2019-01-13T19:42:50.307Z,97.30
2019-01-13T19:45:18.548Z,97.20
2019-01-13T19:47:45.524Z,97.20
2019-01-13T19:50:14.880Z,97.20
2019-01-13T19:52:41.889Z,97.00
2019-01-13T19:55:10.813Z,97.30
2019-01-13T19:57:37.812Z,97.00
2019-01-13T20:00:07.417Z,96.60
2019-01-13T20:02:34.357Z,96.70
2019-01-13T20:05:01.300Z,97.00
2019-01-13T20:07:28.388Z,96.80
2019-01-13T20:09:55.323Z,97.00
2019-01-13T20:12:22.310Z,97.30
2019-01-13T20:14:49.307Z,97.30
2019-01-13T20:17:16.255Z,97.60
2019-01-13T20:19:43.207Z,97.60
2019-01-13T20:22:10.195Z,97.70
2019-01-13T20:24:37.129Z,98.10
2019-01-13T20:27:04.074Z,98.30
2019-01-13T20:29:32.400Z,98.40
2019-01-13T20:31:59.356Z,98.60
2019-01-13T20:34:26.290Z,98.90
2019-01-13T20:36:53.259Z,98.90
2019-01-13T20:39:20.219Z,99.10
2019-01-13T20:41:47.191Z,99.10
2019-01-13T20:44:14.156Z,99.20
2019-01-13T20:46:41.093Z,99.30
2019-01-13T20:49:08.066Z,99.50
2019-01-13T20:51:35.040Z,99.30
2019-01-13T20:54:07.855Z,99.50
2019-01-13T20:56:28.935Z,99.50
2019-01-13T20:58:55.917Z,99.70
2019-01-13T21:01:22.853Z,99.80
2019-01-13T21:03:49.815Z,99.90
2019-01-13T21:06:16.796Z,99.90
2019-01-13T21:08:43.761Z,99.90
2019-01-13T21:11:10.738Z,99.90
2019-01-13T21:13:37.753Z,99.90
2019-01-13T21:16:04.706Z,99.90
2019-01-13T21:18:31.657Z,98.90
2019-01-13T21:20:58.665Z,98.90
2019-01-13T21:23:25.587Z,98.10
2019-01-13T21:25:52.572Z,97.80
2019-01-13T21:28:19.538Z,97.40
2019-01-13T21:30:47.175Z,97.50
2019-01-13T21:33:14.115Z,97.60
2019-01-13T21:35:41.084Z,97.90
2019-01-13T21:38:08.012Z,98.20
2019-01-13T21:40:34.953Z,98.60
2019-01-13T21:43:01.902Z,98.90
2019-01-13T21:45:28.844Z,99.20
2019-01-13T21:47:55.771Z,99.20
2019-01-13T21:50:23.312Z,99.20
2019-01-13T21:52:50.278Z,99.20
2019-01-13T21:55:17.417Z,99.30
2019-01-13T21:57:44.380Z,99.00
2019-01-13T22:00:18.754Z,98.90
2019-01-13T22:02:45.719Z,98.60
2019-01-13T22:05:12.685Z,98.70
2019-01-13T22:07:39.628Z,98.60
2019-01-13T22:10:08.924Z,98.50
2019-01-13T22:12:35.855Z,98.60
2019-01-13T22:15:03.207Z,98.50
2019-01-13T22:17:30.150Z,98.70
2019-01-13T22:19:57.092Z,99.20
2019-01-13T22:22:24.041Z,98.60
2019-01-13T22:24:50.993Z,99.10
2019-01-13T22:27:17.939Z,98.90
2019-01-13T22:29:44.907Z,98.80
2019-01-13T22:32:12.425Z,99.00
2019-01-13T22:34:39.375Z,99.00
2019-01-13T22:37:06.346Z,98.90
2019-01-13T22:39:33.508Z,98.80
2019-01-13T22:42:00.449Z,99.00
2019-01-13T22:44:27.402Z,99.00
2019-01-13T22:46:54.375Z,98.90
2019-01-13T22:49:21.324Z,99.20
2019-01-13T22:51:48.292Z,99.20
2019-01-13T22:54:15.255Z,99.00
2019-01-13T22:56:42.200Z,99.10
2019-01-13T22:59:09.184Z,99.40
2019-01-13T23:01:40.265Z,99.90
2019-01-13T23:04:09.951Z,99.90
2019-01-13T23:06:36.917Z,99.90
2019-01-13T23:09:07.676Z,99.10
2019-01-13T23:11:34.638Z,98.80
2019-01-13T23:14:01.611Z,99.10
2019-01-13T23:16:28.580Z,98.80
2019-01-13T23:18:55.539Z,98.70
2019-01-13T23:21:22.466Z,99.20
2019-01-13T23:23:49.416Z,98.40
2019-01-13T23:26:16.404Z,98.70
2019-01-13T23:28:43.376Z,98.70
2019-01-13T23:31:10.325Z,98.30
2019-01-13T23:33:38.721Z,98.30
2019-01-13T23:36:05.672Z,98.50
2019-01-13T23:38:32.643Z,98.90
2019-01-13T23:40:59.581Z,99.10
2019-01-13T23:43:26.509Z,99.00
2019-01-13T23:45:53.448Z,98.80
2019-01-13T23:48:20.426Z,98.70
2019-01-13T23:50:47.374Z,98.60
2019-01-13T23:53:14.332Z,98.70
2019-01-13T23:55:41.316Z,99.00
2019-01-13T23:58:08.279Z,99.10
